METAR Data
IDs: Format: Raw Decoded Include TAF

Data at: 0236 UTC 24 Sep 2018

KOMN 232247Z 08008KT 10SM SCT020 28/22 A2999 RMK LAST
KOMN 232150Z 09008KT 10SM SCT035 29/22 A2998
KOMN 232050Z 07006KT 7SM SCT035 29/22 A2999
KOMN 231950Z 09010KT 7SM SCT033 29/22 A2999
KOMN 231850Z 10010KT 7SM SCT033 30/22 A3001
KOMN 231750Z 08010KT 7SM SCT030 29/22 A3002
KOMN 231650Z 10010KT 7SM SCT030 29/22 A3004
KOMN 231550Z 10007KT 7SM SCT034 SCT4000 29/22 A3006
KOMN 231450Z 09009KT 7SM SCT031 29/22 A3006
KOMN 231350Z 08005KT 7SM SCT017 29/22 A3004
KOMN 231250Z 08005KT 7SM SCT017 25/22 A3002
KOMN 231149Z 00000KT 7SM SCT015 22/22 A3001
KOMN 231047Z 00000KT 5SM BR CLR 22/22 A2999 RMK FIRST
KOMN 222250Z 12004KT 7SM SCT026 SCT038 28/22 A3000 RMK LAST
KOMN 222150Z 11008KT 7SM SCT026 SCT038 29/23 A3000
KOMN 222050Z 07010KT 7SM SCT028 29/23 A2999
KOMN 221947Z 11005KT 7SM SCT029 29/23 A3001
KOMN 221847Z 09010KT 7SM SCT027 29/23 A3002
KOMN 221750Z 08010G15KT 7SM SCT034 29/23 A3004
KOMN 221647Z 08010G15KT 7SM SCT034 29/22 A3006
KOMN 221555Z 08008KT 7SM SCT034 29/22 A3007
KOMN 221450Z 00000KT 7SM SCT034 28/22 A3008